createdAt,value
2019-05-07T00:00:37.891Z,11.22
2019-05-07T00:03:07.446Z,18.05
2019-05-07T00:05:36.992Z,11.75
2019-05-07T00:08:06.502Z,5.42
2019-05-07T00:10:36.390Z,7.60
2019-05-07T00:13:05.897Z,5.37
2019-05-07T00:15:35.457Z,7.08
2019-05-07T00:18:05.018Z,8.88
2019-05-07T00:20:34.606Z,8.48
2019-05-07T00:23:04.086Z,9.33
2019-05-07T00:25:33.697Z,7.08
2019-05-07T00:28:03.286Z,11.33
2019-05-07T00:30:33.322Z,6.30
2019-05-07T00:33:03.015Z,6.65
2019-05-07T02:30:30.099Z,9.63
2019-05-07T02:32:59.529Z,13.13
2019-05-07T02:35:29.368Z,10.15
2019-05-07T02:38:13.831Z,13.90
2019-05-07T02:40:46.668Z,16.05
2019-05-07T02:43:16.068Z,14.13
2019-05-07T02:46:21.474Z,18.40
2019-05-07T02:48:44.610Z,12.60
2019-05-07T02:51:23.805Z,13.48
2019-05-07T02:54:03.563Z,10.25
2019-05-07T02:56:33.326Z,10.58
2019-05-07T02:59:04.023Z,11.10
2019-05-07T03:01:33.969Z,11.63
2019-05-07T03:04:03.802Z,9.45
2019-05-07T03:06:34.108Z,8.68
2019-05-07T03:09:05.369Z,11.08
2019-05-07T03:11:34.785Z,14.80
2019-05-07T03:14:04.305Z,13.08
2019-05-07T03:16:43.193Z,10.78
2019-05-07T03:19:04.862Z,9.85
2019-05-07T03:21:53.785Z,15.00
2019-05-07T03:24:55.676Z,14.85
2019-05-07T03:27:25.121Z,13.72
2019-05-07T03:30:08.478Z,10.98
2019-05-07T03:32:46.779Z,9.93
2019-05-07T03:35:28.442Z,11.20
2019-05-07T03:37:58.046Z,8.58
2019-05-07T03:40:28.169Z,11.80
2019-05-07T03:43:01.498Z,13.28
2019-05-07T03:45:43.198Z,13.58
2019-05-07T03:48:17.189Z,11.00
2019-05-07T03:50:46.605Z,10.45
2019-05-07T03:53:16.005Z,19.92
2019-05-07T03:55:45.403Z,14.45
2019-05-07T03:58:15.017Z,13.60
2019-05-07T04:00:45.236Z,11.12
2019-05-07T04:03:18.935Z,12.05
2019-05-07T04:05:45.782Z,17.00
2019-05-07T04:08:15.265Z,13.75
2019-05-07T04:10:46.161Z,14.40
2019-05-07T04:13:15.576Z,16.52
2019-05-07T04:15:45.001Z,17.55
2019-05-07T04:18:14.456Z,14.35
2019-05-07T04:20:44.053Z,11.60
2019-05-07T04:23:14.122Z,16.57
2019-05-07T04:25:58.711Z,13.78
2019-05-07T04:28:34.776Z,13.70
2019-05-07T04:31:04.301Z,13.40
2019-05-07T04:33:37.868Z,14.75
2019-05-07T04:36:14.813Z,12.30
2019-05-07T04:38:44.335Z,15.68
2019-05-07T04:41:14.122Z,11.93
2019-05-07T04:43:44.687Z,12.15
2019-05-07T04:46:14.540Z,15.00
2019-05-07T04:48:44.501Z,15.50
2019-05-07T04:51:16.032Z,12.25
2019-05-07T04:53:45.454Z,14.30
2019-05-07T04:56:15.257Z,15.80
2019-05-07T04:58:44.645Z,18.70
2019-05-07T05:01:16.076Z,17.12
2019-05-07T05:03:45.509Z,18.48
2019-05-07T05:06:15.210Z,12.68
2019-05-07T05:08:44.601Z,20.55
2019-05-07T05:11:14.434Z,16.15
2019-05-07T05:13:44.632Z,11.65
2019-05-07T05:16:24.249Z,9.65
2019-05-07T05:18:54.407Z,13.10
2019-05-07T05:21:32.637Z,7.97
2019-05-07T05:24:06.341Z,13.18
2019-05-07T05:26:35.745Z,9.85
2019-05-07T05:29:05.270Z,10.58
2019-05-07T05:31:34.696Z,9.53
2019-05-07T05:34:04.198Z,7.85
2019-05-07T05:36:33.641Z,19.80
2019-05-07T05:39:03.037Z,11.33
2019-05-07T05:41:34.020Z,8.20
2019-05-07T05:44:08.436Z,9.15
2019-05-07T05:46:37.874Z,9.73
2019-05-07T05:49:07.273Z,9.98
2019-05-07T05:51:55.615Z,6.87
2019-05-07T05:54:32.921Z,9.08
2019-05-07T05:57:39.857Z,11.10
2019-05-07T06:00:47.585Z,13.10
2019-05-07T06:03:45.351Z,12.65
2019-05-07T06:06:36.479Z,11.63
2019-05-07T06:09:18.646Z,9.48
2019-05-07T06:12:06.993Z,10.75
2019-05-07T06:14:49.175Z,11.53
2019-05-07T06:17:35.077Z,12.75
2019-05-07T06:20:22.596Z,13.28
2019-05-07T06:23:09.740Z,14.40
2019-05-07T06:25:39.580Z,13.15
2019-05-07T06:28:09.011Z,29.65
2019-05-07T06:30:38.440Z,16.30
2019-05-07T06:33:07.849Z,20.70
2019-05-07T06:35:37.251Z,18.12
2019-05-07T06:38:08.284Z,15.85
2019-05-07T06:40:53.225Z,16.75
2019-05-07T06:43:42.041Z,15.35
2019-05-07T06:46:12.568Z,11.83
2019-05-07T06:48:45.769Z,21.73
2019-05-07T06:51:13.145Z,19.92
2019-05-07T06:53:42.548Z,13.95
2019-05-07T06:56:12.303Z,16.60
2019-05-07T06:58:49.558Z,12.73
2019-05-07T07:01:37.370Z,13.48
2019-05-07T07:04:24.557Z,26.20
2019-05-07T07:07:27.571Z,16.57
2019-05-07T07:10:09.404Z,13.80
2019-05-07T07:12:38.837Z,23.75
2019-05-07T07:15:08.705Z,18.55
2019-05-07T07:17:38.408Z,13.68
2019-05-07T07:20:08.095Z,17.25
2019-05-07T07:22:37.525Z,17.37
2019-05-07T07:25:07.477Z,13.30
2019-05-07T07:27:36.882Z,12.63
2019-05-07T07:30:24.568Z,16.35
2019-05-07T07:32:54.202Z,36.03
2019-05-07T07:35:23.677Z,18.23
2019-05-07T07:37:53.517Z,27.58
2019-05-07T07:40:32.712Z,22.37
2019-05-07T07:43:06.469Z,19.67
2019-05-07T07:45:34.549Z,13.98
2019-05-07T07:48:04.371Z,16.85
2019-05-07T07:50:34.189Z,26.35
2019-05-07T07:53:03.619Z,13.55
2019-05-07T07:55:44.522Z,16.00
2019-05-07T07:58:25.638Z,28.32
2019-05-07T08:01:03.991Z,19.32
2019-05-07T08:03:33.698Z,22.60
2019-05-07T08:06:03.180Z,21.62
2019-05-07T08:08:32.619Z,21.77
2019-05-07T08:11:02.461Z,17.17
2019-05-07T08:13:32.656Z,18.85
2019-05-07T08:16:02.536Z,16.95
2019-05-07T08:18:32.759Z,19.30
2019-05-07T08:21:02.597Z,16.50
2019-05-07T08:23:32.125Z,20.17
2019-05-07T08:26:02.518Z,24.77
2019-05-07T08:28:32.131Z,23.52
2019-05-07T08:31:16.768Z,24.07
2019-05-07T08:33:52.518Z,23.47
2019-05-07T08:36:22.607Z,21.37
2019-05-07T08:38:56.146Z,19.40
2019-05-07T08:41:27.346Z,18.55
2019-05-07T08:44:11.801Z,23.15
2019-05-07T08:47:02.800Z,22.90
2019-05-07T08:49:38.920Z,20.77
2019-05-07T08:52:03.922Z,20.72
2019-05-07T08:54:33.865Z,17.50
2019-05-07T08:57:03.409Z,23.35
2019-05-07T08:59:33.968Z,18.67
2019-05-07T09:02:04.027Z,18.07
2019-05-07T09:04:33.549Z,21.65
2019-05-07T09:07:03.129Z,20.50
2019-05-07T09:09:32.784Z,21.12
2019-05-07T09:12:03.105Z,22.87
2019-05-07T09:14:32.634Z,18.77
2019-05-07T09:17:02.735Z,23.55
2019-05-07T09:19:46.922Z,30.50
2019-05-07T09:22:04.792Z,19.90
2019-05-07T09:24:34.194Z,25.40
2019-05-07T09:27:29.314Z,25.05
2019-05-07T09:30:17.659Z,24.65
2019-05-07T09:32:56.719Z,23.07
2019-05-07T09:35:32.070Z,24.00
2019-05-07T09:38:03.146Z,22.25
2019-05-07T09:40:32.749Z,24.95
2019-05-07T09:43:02.599Z,27.40
2019-05-07T09:45:32.906Z,30.55
2019-05-07T09:48:02.996Z,25.90
2019-05-07T09:50:32.705Z,45.12
2019-05-07T09:53:02.470Z,23.50
2019-05-07T09:55:32.524Z,32.80
2019-05-07T09:58:02.335Z,30.52
2019-05-07T10:00:33.206Z,29.00
2019-05-07T10:03:02.854Z,29.85
2019-05-07T10:05:32.323Z,31.62
2019-05-07T10:08:01.962Z,27.98
2019-05-07T10:10:32.902Z,37.65
2019-05-07T10:13:12.216Z,31.27
2019-05-07T10:15:41.871Z,27.30
2019-05-07T10:18:15.713Z,30.20
2019-05-07T10:20:46.336Z,29.63
2019-05-07T10:23:23.003Z,33.48
2019-05-07T10:25:56.341Z,32.33
2019-05-07T10:28:25.815Z,26.12
2019-05-07T10:30:55.690Z,32.42
2019-05-07T10:33:25.645Z,31.75
2019-05-07T10:35:55.066Z,32.93
2019-05-07T10:38:24.641Z,32.00
2019-05-07T10:40:54.107Z,30.68
2019-05-07T10:43:23.570Z,30.92
2019-05-07T10:46:27.714Z,40.17
2019-05-07T10:49:02.598Z,32.85
2019-05-07T10:51:32.264Z,29.65
2019-05-07T10:54:02.329Z,33.88
2019-05-07T10:56:32.624Z,32.20
2019-05-07T10:59:02.875Z,29.72
2019-05-07T11:01:38.893Z,31.90
2019-05-07T11:04:08.426Z,28.55
2019-05-07T11:06:38.194Z,30.95
2019-05-07T11:09:08.852Z,30.25
2019-05-07T11:11:38.293Z,31.05
2019-05-07T11:14:08.062Z,29.02
2019-05-07T11:16:46.874Z,28.85
2019-05-07T11:19:18.934Z,29.82
2019-05-07T11:21:47.728Z,28.62
2019-05-07T11:24:17.173Z,32.00
2019-05-07T11:26:46.614Z,30.50
2019-05-07T11:29:16.162Z,32.17
2019-05-07T11:31:45.604Z,35.17
2019-05-07T11:34:15.110Z,37.95
2019-05-07T11:36:45.282Z,38.05
2019-05-07T11:39:15.105Z,35.70
2019-05-07T11:42:02.413Z,33.92
2019-05-07T11:44:32.181Z,45.12
2019-05-07T11:47:22.468Z,36.55
2019-05-07T11:50:11.990Z,39.27
2019-05-07T11:52:44.956Z,40.70
2019-05-07T11:55:14.515Z,40.73
2019-05-07T11:57:44.420Z,37.20
2019-05-07T12:00:24.737Z,35.25
2019-05-07T12:02:54.164Z,34.90
2019-05-07T12:05:24.394Z,38.98
2019-05-07T12:07:53.802Z,50.28
2019-05-07T12:10:23.597Z,39.40
2019-05-07T12:12:53.028Z,37.30
2019-05-07T12:15:22.481Z,41.65
2019-05-07T12:17:52.272Z,42.60
2019-05-07T12:20:21.940Z,42.55
2019-05-07T12:22:52.162Z,38.75
2019-05-07T12:25:22.004Z,42.05
2019-05-07T12:27:52.853Z,49.55
2019-05-07T12:30:55.548Z,43.68
2019-05-07T12:33:42.862Z,36.50
2019-05-07T12:36:13.596Z,41.10
2019-05-07T12:38:43.558Z,47.67
2019-05-07T12:41:33.921Z,51.68
2019-05-07T12:44:06.253Z,51.55
2019-05-07T12:46:36.928Z,44.75
2019-05-07T12:49:06.997Z,42.55
2019-05-07T12:51:58.513Z,40.73
2019-05-07T12:54:47.014Z,49.00
2019-05-07T12:57:16.757Z,40.70
2019-05-07T12:59:46.212Z,41.90
2019-05-07T13:02:44.096Z,44.75
2019-05-07T13:05:12.069Z,50.58
2019-05-07T13:07:54.945Z,47.00
2019-05-07T13:10:24.381Z,46.98
2019-05-07T13:12:54.243Z,42.60
2019-05-07T13:15:27.574Z,41.98
2019-05-07T13:17:54.819Z,37.58
2019-05-07T13:20:24.547Z,38.58
2019-05-07T13:22:53.979Z,40.60
2019-05-07T13:25:28.274Z,36.38
2019-05-07T13:27:56.330Z,35.60
2019-05-07T13:30:26.002Z,41.05
2019-05-07T13:32:57.045Z,42.48
2019-05-07T13:35:26.961Z,45.10
2019-05-07T13:38:14.796Z,37.30
2019-05-07T13:41:02.203Z,39.08
2019-05-07T13:43:36.782Z,34.67
2019-05-07T13:46:09.084Z,40.23
2019-05-07T13:48:42.429Z,36.93
2019-05-07T13:51:12.297Z,38.20
2019-05-07T13:53:42.807Z,31.45
2019-05-07T13:56:12.936Z,35.05
2019-05-07T13:58:42.873Z,41.00
2019-05-07T14:01:23.110Z,33.25
2019-05-07T14:03:52.525Z,31.57
2019-05-07T14:06:43.033Z,29.37
2019-05-07T14:09:24.207Z,27.48
2019-05-07T14:11:53.179Z,25.37
2019-05-07T14:14:22.822Z,25.52
2019-05-07T14:16:53.088Z,23.95
2019-05-07T14:19:22.784Z,30.85
2019-05-07T14:21:52.676Z,25.45
2019-05-07T14:24:22.581Z,22.75
2019-05-07T14:26:53.135Z,26.05
2019-05-07T14:29:24.845Z,22.30
2019-05-07T14:32:04.207Z,23.75
2019-05-07T14:34:38.089Z,23.30
2019-05-07T14:37:32.492Z,25.43
2019-05-07T14:40:02.693Z,30.32
2019-05-07T14:42:41.948Z,22.15
2019-05-07T14:45:11.529Z,23.57
2019-05-07T14:47:44.389Z,19.00
2019-05-07T14:50:13.319Z,20.80
2019-05-07T14:52:43.431Z,21.33
2019-05-07T14:55:13.370Z,22.37
2019-05-07T14:57:43.410Z,20.37
2019-05-07T15:00:13.533Z,24.27
2019-05-07T15:02:43.016Z,21.12
2019-05-07T15:05:12.692Z,18.52
2019-05-07T15:07:45.085Z,18.92
2019-05-07T15:10:15.232Z,19.75
2019-05-07T15:12:44.713Z,17.07
2019-05-07T15:15:14.758Z,14.85
2019-05-07T15:17:53.271Z,14.55
2019-05-07T15:20:22.859Z,15.75
2019-05-07T15:23:06.619Z,15.50
2019-05-07T15:25:36.037Z,15.63
2019-05-07T15:28:06.552Z,14.38
2019-05-07T15:30:46.380Z,21.12
2019-05-07T15:33:15.829Z,16.90
2019-05-07T15:35:45.558Z,18.62
2019-05-07T15:38:15.007Z,17.45
2019-05-07T15:40:44.608Z,15.93
2019-05-07T15:43:14.223Z,15.18
2019-05-07T15:45:43.766Z,9.48
2019-05-07T15:48:13.237Z,13.18
2019-05-07T15:50:42.984Z,14.58
2019-05-07T15:53:21.920Z,11.48
2019-05-07T15:55:52.274Z,16.12
2019-05-07T15:58:22.768Z,12.15
2019-05-07T16:00:52.215Z,15.35
2019-05-07T16:03:32.130Z,11.10
2019-05-07T16:06:03.744Z,15.50
2019-05-07T16:08:36.095Z,13.43
2019-05-07T16:11:05.546Z,12.18
2019-05-07T16:13:37.132Z,10.70
2019-05-07T16:16:06.539Z,13.05
2019-05-07T16:18:42.171Z,12.60
2019-05-07T16:21:12.106Z,11.65
2019-05-07T16:23:41.958Z,11.83
2019-05-07T16:26:12.919Z,11.60
2019-05-07T16:28:42.465Z,9.10
2019-05-07T16:31:11.921Z,7.80
2019-05-07T16:33:43.058Z,8.60
2019-05-07T16:36:12.662Z,6.20
2019-05-07T16:38:42.745Z,9.30
2019-05-07T16:41:13.553Z,10.13
2019-05-07T16:43:43.132Z,9.03
2019-05-07T16:46:12.643Z,8.05
2019-05-07T16:48:43.848Z,10.85
2019-05-07T16:51:13.181Z,12.20
2019-05-07T16:53:42.635Z,13.45
2019-05-07T16:56:12.663Z,10.08
2019-05-07T16:58:52.879Z,9.58
2019-05-07T17:01:24.653Z,13.90
2019-05-07T17:03:57.104Z,9.70
2019-05-07T17:06:26.577Z,8.08
2019-05-07T17:09:05.599Z,9.40
2019-05-07T17:11:35.039Z,8.75
2019-05-07T17:14:04.504Z,10.32
2019-05-07T17:16:34.384Z,7.83
2019-05-07T17:19:03.974Z,6.83
2019-05-07T17:21:33.453Z,6.00
2019-05-07T17:24:02.922Z,5.58
2019-05-07T17:26:32.766Z,5.97
2019-05-07T17:29:02.678Z,11.38
2019-05-07T17:31:32.194Z,9.20
2019-05-07T17:34:02.291Z,7.55
2019-05-07T17:36:33.011Z,6.42
2019-05-07T17:39:02.986Z,7.62
2019-05-07T17:41:32.515Z,8.08
2019-05-07T17:44:02.839Z,6.55
2019-05-07T17:46:33.438Z,6.92
2019-05-07T17:49:03.922Z,6.83
2019-05-07T17:51:46.624Z,11.60
2019-05-07T17:54:16.037Z,14.63
2019-05-07T17:56:45.464Z,19.50
2019-05-07T17:59:14.887Z,25.25
2019-05-07T18:02:02.567Z,20.35
2019-05-07T18:04:47.704Z,23.67
2019-05-07T18:07:05.396Z,21.45
2019-05-07T18:09:35.154Z,24.32
2019-05-07T18:12:04.624Z,22.25
2019-05-07T18:14:34.080Z,28.87
2019-05-07T18:17:09.424Z,20.90
2019-05-07T18:19:38.874Z,23.10
2019-05-07T18:22:08.972Z,29.60
2019-05-07T18:24:38.384Z,31.73
2019-05-07T18:27:09.740Z,32.40
2019-05-07T18:29:58.462Z,34.15
2019-05-07T18:32:39.385Z,36.80
2019-05-07T18:35:08.914Z,37.30
2019-05-07T18:37:42.479Z,37.90
2019-05-07T18:40:12.714Z,45.83
2019-05-07T18:42:42.696Z,40.95
2019-05-07T18:45:12.633Z,41.05
2019-05-07T18:47:43.419Z,41.95
2019-05-07T18:50:14.030Z,39.90
2019-05-07T18:52:44.042Z,41.33
2019-05-07T18:55:13.653Z,41.28
2019-05-07T18:57:43.104Z,42.90
2019-05-07T19:00:19.042Z,49.48
2019-05-07T19:02:49.121Z,48.87
2019-05-07T19:05:22.284Z,49.08
2019-05-07T19:08:04.351Z,48.10
2019-05-07T19:10:33.113Z,52.35
2019-05-07T19:13:06.258Z,43.15
2019-05-07T19:15:37.784Z,53.73
2019-05-07T19:18:12.062Z,44.93
2019-05-07T19:20:42.441Z,48.73
2019-05-07T19:23:12.561Z,47.45
2019-05-07T19:25:44.048Z,51.20
2019-05-07T19:28:15.000Z,52.80
2019-05-07T19:30:44.554Z,52.00
2019-05-07T19:33:15.525Z,46.13
2019-05-07T19:35:48.296Z,61.98
2019-05-07T19:38:19.443Z,49.53
2019-05-07T19:40:49.347Z,50.83
2019-05-07T19:43:21.433Z,48.85
2019-05-07T19:45:53.523Z,48.33
2019-05-07T19:48:23.309Z,51.58
2019-05-07T19:50:53.326Z,53.00
2019-05-07T19:53:23.444Z,49.65
2019-05-07T19:56:16.605Z,54.73
2019-05-07T19:58:48.549Z,61.33
2019-05-07T20:01:22.824Z,47.78
2019-05-07T20:03:52.974Z,55.40
2019-05-07T20:06:23.434Z,52.23
2019-05-07T20:08:53.130Z,51.42
2019-05-07T20:11:32.073Z,52.67
2019-05-07T20:14:02.125Z,46.65
2019-05-07T20:16:32.926Z,54.65
2019-05-07T20:19:02.600Z,53.45
2019-05-07T20:21:32.674Z,48.33
2019-05-07T20:24:02.353Z,47.60
2019-05-07T20:26:32.736Z,48.40
2019-05-07T20:29:03.156Z,48.98
2019-05-07T20:31:33.626Z,52.58
2019-05-07T20:34:03.211Z,49.08
2019-05-07T20:36:32.909Z,53.00
2019-05-07T20:39:02.499Z,50.92
2019-05-07T20:41:32.989Z,46.00
2019-05-07T20:44:03.030Z,50.88
2019-05-07T20:46:32.917Z,45.78
2019-05-07T20:49:02.994Z,47.33
2019-05-07T20:51:32.755Z,47.67
2019-05-07T20:54:26.985Z,50.63
2019-05-07T20:57:02.242Z,50.92
2019-05-07T20:59:32.743Z,46.33
2019-05-07T21:02:02.489Z,42.38
2019-05-07T21:04:33.033Z,46.18
2019-05-07T21:07:03.072Z,43.17
2019-05-07T21:09:32.974Z,42.05
2019-05-07T21:12:02.569Z,46.48
2019-05-07T21:14:32.583Z,45.00
2019-05-07T21:17:02.143Z,45.60
2019-05-07T21:19:33.121Z,48.42
2019-05-07T21:22:03.505Z,44.80
2019-05-07T21:24:33.174Z,41.02
2019-05-07T21:27:02.781Z,41.37
2019-05-07T21:29:32.761Z,40.00
2019-05-07T21:32:03.268Z,43.17
2019-05-07T21:34:32.998Z,40.90
2019-05-07T21:37:03.282Z,41.95
2019-05-07T21:39:33.123Z,44.30
2019-05-07T21:42:02.713Z,39.95
2019-05-07T21:44:32.639Z,39.70
2019-05-07T21:47:03.866Z,51.02
2019-05-07T21:49:33.477Z,46.45
2019-05-07T21:52:02.907Z,45.60
2019-05-07T21:54:54.523Z,45.33
2019-05-07T21:57:37.731Z,41.68
2019-05-07T22:00:22.061Z,42.93
2019-05-07T22:02:52.602Z,44.20
2019-05-07T22:05:22.674Z,39.18
2019-05-07T22:07:54.197Z,41.60
2019-05-07T22:10:23.154Z,45.67
2019-05-07T22:12:54.665Z,45.28
2019-05-07T22:15:23.686Z,45.28
2019-05-07T22:17:53.139Z,48.45
2019-05-07T22:20:22.586Z,43.80
2019-05-07T22:22:52.179Z,44.95
2019-05-07T22:25:22.201Z,48.35
2019-05-07T22:27:52.975Z,43.55
2019-05-07T22:30:28.849Z,48.60
2019-05-07T22:33:09.398Z,46.68
2019-05-07T22:35:41.063Z,46.28
2019-05-07T22:38:12.206Z,45.55
2019-05-07T22:40:43.380Z,43.08
2019-05-07T22:43:13.068Z,41.33
2019-05-07T22:45:42.870Z,43.00
2019-05-07T22:48:12.333Z,44.60
2019-05-07T22:50:42.362Z,38.80
2019-05-07T22:53:12.913Z,39.88
2019-05-07T22:55:42.342Z,42.20
2019-05-07T22:58:23.996Z,42.50
2019-05-07T23:01:02.455Z,39.75
2019-05-07T23:03:32.280Z,40.38
2019-05-07T23:06:07.651Z,40.40
2019-05-07T23:08:42.403Z,38.17
2019-05-07T23:11:12.481Z,46.73
2019-05-07T23:13:42.877Z,42.40
2019-05-07T23:16:12.759Z,39.05
2019-05-07T23:18:43.075Z,36.58
2019-05-07T23:21:12.596Z,37.67
2019-05-07T23:23:42.367Z,39.10
2019-05-07T23:26:14.634Z,37.75
2019-05-07T23:28:43.225Z,38.42
2019-05-07T23:31:12.628Z,37.55
2019-05-07T23:33:42.097Z,39.98
2019-05-07T23:36:12.957Z,37.38
2019-05-07T23:38:42.767Z,31.52
2019-05-07T23:41:29.985Z,38.40
2019-05-07T23:44:27.417Z,28.60
2019-05-07T23:46:56.848Z,29.23
2019-05-07T23:49:26.245Z,28.73
2019-05-07T23:51:56.016Z,29.92
2019-05-07T23:54:25.513Z,30.12
2019-05-07T23:57:06.110Z,28.20
2019-05-07T23:59:26.474Z,31.33
